John James Audubon — WDE8037 — position and weather

sailwx.info

Track history (hours):
 
Tides and Currents Weather Stations Pressure Air Temp Water Temp Dewpoint Dewpoint Depression Visibility Wind Speed Wind Dir Waves Ship Positions

John James Audubon

Owner: Statue Cruises, Jersey City, NJ. More information available from US FCC via Universal Licensing System and Coast Guard Vessel Documentation Center.

Last reported at 2017-Jun-28 03:08 UTC. Time now 2017-Jun-28 03:42 UTC.
Position N 40°44' W 074°01'.

Length 37 m.

Type: Ship. MMSI: 367400770.

Date/timePositionNaut miles runAvg speedWind from/ knotsBaromVisibWave heightAir tempDewpointWater temp
2017-Jun-28 03:08N 40°44' W 074°01'0 0.0
2017-Jun-28 03:01N 40°44' W 074°01'3 5.0
2017-Jun-28 02:30N 40°42' W 074°02'2 4.7
2017-Jun-28 02:01N 40°43' W 073°59'1 1.7
2017-Jun-28 01:31N 40°42' W 074°00'3 6.7
2017-Jun-28 01:01N 40°45' W 074°01'2 3.1
2017-Jun-28 00:30N 40°44' W 074°01'0 0.0
2017-Jun-28 00:00N 40°44' W 074°01'0 0.1
2017-Jun-27 23:30N 40°44' W 074°01'0 0.0
2017-Jun-27 23:00N 40°44' W 074°01'0 0.0
2017-Jun-27 22:30N 40°44' W 074°01'0 0.0
2017-Jun-27 22:01N 40°44' W 074°01'0 0.0
2017-Jun-27 21:30N 40°44' W 074°01'0 0.0
2017-Jun-27 21:00N 40°44' W 074°01'0 0.0
2017-Jun-27 20:30N 40°44' W 074°01'0 0.6
2017-Jun-27 20:00N 40°44' W 074°01'1 3.0
2017-Jun-27 19:30N 40°42' W 074°00'2 3.7
2017-Jun-27 19:01N 40°41' W 074°02'2 3.6
2017-Jun-27 18:30N 40°42' W 074°00'0 0.0
2017-Jun-27 18:01N 40°42' W 074°00'2 4.1
2017-Jun-27 17:31N 40°41' W 074°03'2 4.1
2017-Jun-27 17:01N 40°42' W 074°00'0 0.0
2017-Jun-27 16:31N 40°42' W 074°00'2 4.1
2017-Jun-27 16:01N 40°41' W 074°03'2 4.1
2017-Jun-27 15:31N 40°42' W 074°00'0 0.0
2017-Jun-27 15:01N 40°42' W 074°00'0 0.0
2017-Jun-27 14:01N 40°42' W 074°00'0 0.0
2017-Jun-27 13:31N 40°42' W 074°00'0 0.0
2017-Jun-27 13:00N 40°42' W 074°00'0 0.4
2017-Jun-27 12:31N 40°42' W 074°00'2 3.6
2017-Jun-27 12:00N 40°44' W 074°01'0 0.0
2017-Jun-26 23:49N 40°44' W 074°01'0 0.0
2017-Jun-26 23:31N 40°44' W 074°01'0 0.0
2017-Jun-26 23:00N 40°44' W 074°01'0 0.5
2017-Jun-26 22:30N 40°44' W 074°01'2 3.2
2017-Jun-26 22:00N 40°42' W 074°00'2 3.3
2017-Jun-26 21:30N 40°41' W 074°02'2 3.4
2017-Jun-26 21:00N 40°42' W 074°00'0 0.0
2017-Jun-26 20:30N 40°42' W 074°00'2 3.8
2017-Jun-26 20:00N 40°41' W 074°02'2 3.8
2017-Jun-26 19:30N 40°42' W 074°00'0 0.0
2017-Jun-26 19:00N 40°42' W 074°00'2 4.2
2017-Jun-26 18:30N 40°41' W 074°03'2 4.2
2017-Jun-26 18:00N 40°42' W 074°00'0 0.0
2017-Jun-26 17:30N 40°42' W 074°00'2 4.0
2017-Jun-26 17:00N 40°41' W 074°02'2 4.0
2017-Jun-26 16:30N 40°42' W 074°00'0 0.0
2017-Jun-26 16:00N 40°42' W 074°00'2 4.1
2017-Jun-26 15:30N 40°41' W 074°02'2 4.1
2017-Jun-26 15:00N 40°42' W 074°00'0 0.0
2017-Jun-26 14:30N 40°42' W 074°00'0 0.0
2017-Jun-26 13:30N 40°42' W 074°00'0 0.0
2017-Jun-26 13:00N 40°42' W 074°00'2 0.2
2017-Jun-26 05:50N 40°44' W 074°01'0 0.0
2017-Jun-26 05:30N 40°44' W 074°01'0 0.0
2017-Jun-26 05:00N 40°44' W 074°01'0 0.0
2017-Jun-26 04:30N 40°44' W 074°01'0 0.4
2017-Jun-26 04:00N 40°44' W 074°01'0 0.3
2017-Jun-26 03:30N 40°44' W 074°01'0 0.5
2017-Jun-26 03:00N 40°44' W 074°01'0 0.0
2017-Jun-26 02:30N 40°44' W 074°01'1 1.1
2017-Jun-26 02:00N 40°44' W 074°01'2 4.2
2017-Jun-26 01:30N 40°42' W 074°02'2 3.5
2017-Jun-26 01:00N 40°42' W 074°00'2 3.9
2017-Jun-26 00:30N 40°44' W 074°01'1 1.2
2017-Jun-26 00:01N 40°45' W 074°01'1 1.4
2017-Jun-25 23:30N 40°44' W 074°01'0 0.0
2017-Jun-25 23:00N 40°44' W 074°01'0 0.0
2017-Jun-25 22:30N 40°44' W 074°01'0 0.0
2017-Jun-25 22:00N 40°44' W 074°01'0 0.0
2017-Jun-25 21:30N 40°44' W 074°01'0 0.0
2017-Jun-25 21:00N 40°44' W 074°01'0 0.0
2017-Jun-25 20:30N 40°44' W 074°01'1 2.6
2017-Jun-25 20:00N 40°43' W 074°01'1 1.8
2017-Jun-25 19:30N 40°42' W 074°00'2 4.0
2017-Jun-25 19:01N 40°41' W 074°02'2 4.0
2017-Jun-25 18:30N 40°42' W 074°00'0 0.4
2017-Jun-25 18:00N 40°42' W 073°60'2 4.2
2017-Jun-25 17:30N 40°41' W 074°02'2 3.8
2017-Jun-25 17:00N 40°42' W 074°00'0 0.0
2017-Jun-25 16:30N 40°42' W 074°00'2 3.9
2017-Jun-25 16:00N 40°41' W 074°02'2 3.8
2017-Jun-25 15:30N 40°42' W 074°00'0 0.0
2017-Jun-25 15:00N 40°42' W 074°00'2 4.0
2017-Jun-25 14:30N 40°41' W 074°02'1 1.4
2017-Jun-25 13:30N 40°42' W 074°01'2 0.2
2017-Jun-25 03:49N 40°44' W 074°01'0 1.2
2017-Jun-25 03:30N 40°44' W 074°01'2 4.9
2017-Jun-25 03:00N 40°41' W 074°02'2 4.9
2017-Jun-25 02:30N 40°42' W 073°59'1 2.9
2017-Jun-25 02:00N 40°43' W 074°01'1 1.8
2017-Jun-25 01:30N 40°44' W 074°01'0 0.0
2017-Jun-25 01:00N 40°44' W 074°01'0 0.0
2017-Jun-25 00:30N 40°44' W 074°01'0 0.0
2017-Jun-24 22:54N 40°44' W 074°01'1 1.9
2017-Jun-24 22:30N 40°43' W 074°01'1 2.3
2017-Jun-24 22:00N 40°42' W 074°00'1 2.0
2017-Jun-24 21:30N 40°42' W 074°01'1 1.9
2017-Jun-24 21:00N 40°42' W 074°00'0 0.0
2017-Jun-24 20:30N 40°42' W 074°00'2 3.7
2017-Jun-24 20:00N 40°41' W 074°02'2 3.7
2017-Jun-24 19:30N 40°42' W 074°00'0 0.0
2017-Jun-24 19:00N 40°42' W 074°00'2 4.1
2017-Jun-24 18:30N 40°41' W 074°02'2 4.1
2017-Jun-24 18:00N 40°42' W 074°00'0 0.0
2017-Jun-24 17:30N 40°42' W 074°00'1 2.7
2017-Jun-24 17:00N 40°41' W 074°02'1 2.7
2017-Jun-24 16:30N 40°42' W 074°00'0 0.0
2017-Jun-24 16:00N 40°42' W 074°00'2 4.2
2017-Jun-24 15:31N 40°41' W 074°02'2 4.1
2017-Jun-24 15:00N 40°42' W 074°00'2 1.8
2017-Jun-24 14:00N 40°41' W 074°02'2 3.5
2017-Jun-24 13:30N 40°42' W 074°00'1 2.6
2017-Jun-24 13:00N 40°43' W 074°01'1 0.1
2017-Jun-24 02:11N 40°44' W 074°01'0 0.0
2017-Jun-24 02:00N 40°44' W 074°01'3 5.4
2017-Jun-24 01:30N 40°41' W 074°02'1 2.3
2017-Jun-24 01:01N 40°42' W 074°01'3 6.1
2017-Jun-24 00:30N 40°45' W 074°01'0 0.5
2017-Jun-24 00:00N 40°45' W 074°01'2 3.2
2017-Jun-23 23:30N 40°44' W 074°01'0 0.0
2017-Jun-23 23:00N 40°44' W 074°01'0 0.0
2017-Jun-23 22:30N 40°44' W 074°01'0 0.0
2017-Jun-23 22:00N 40°44' W 074°01'0 0.0
2017-Jun-23 21:31N 40°44' W 074°01'0 0.0
2017-Jun-23 21:01N 40°44' W 074°01'0 0.0
2017-Jun-23 20:30N 40°44' W 074°01'1 1.6
2017-Jun-23 20:01N 40°43' W 074°01'1 2.3
2017-Jun-23 19:30N 40°42' W 074°00'2 4.0
2017-Jun-23 19:00N 40°41' W 074°02'2 4.0
2017-Jun-23 18:30N 40°42' W 074°00'0 0.0
2017-Jun-23 18:01N 40°42' W 074°00'2 4.0
2017-Jun-23 17:30N 40°41' W 074°03'2 4.1
2017-Jun-23 17:00N 40°42' W 074°00'0 0.0
2017-Jun-23 16:31N 40°42' W 074°00'2 4.0
2017-Jun-23 16:01N 40°41' W 074°02'2 4.0
2017-Jun-23 15:30N 40°42' W 074°00'0 0.1
2017-Jun-23 15:01N 40°42' W 074°00'0 0.0
2017-Jun-23 14:01N 40°42' W 074°00'0 0.0
2017-Jun-23 13:30N 40°42' W 074°00'0 0.0
2017-Jun-23 13:01N 40°42' W 074°00'2 0.1
2017-Jun-22 22:28N 40°44' W 074°01'2 3.7
2017-Jun-22 22:00N 40°42' W 074°00'2 3.8
2017-Jun-22 21:30N 40°41' W 074°02'2 3.8
2017-Jun-22 21:00N 40°42' W 074°00'0 0.0
2017-Jun-22 20:30N 40°42' W 074°00'2 3.4
2017-Jun-22 20:00N 40°41' W 074°02'2 3.3
2017-Jun-22 19:30N 40°42' W 074°00'0 0.0
2017-Jun-22 19:00N 40°42' W 074°00'2 3.3
2017-Jun-22 18:30N 40°41' W 074°02'2 3.3
2017-Jun-22 18:00N 40°42' W 074°00'0 0.0
2017-Jun-22 17:30N 40°42' W 074°00'2 3.1
2017-Jun-22 17:00N 40°41' W 074°02'2 3.0
2017-Jun-22 16:30N 40°42' W 074°00'0 0.0
2017-Jun-22 16:00N 40°42' W 074°00'2 3.4
2017-Jun-22 15:30N 40°41' W 074°02'2 3.4
2017-Jun-22 15:00N 40°42' W 074°00'0 0.0
2017-Jun-22 14:30N 40°42' W 074°00'0 0.0
2017-Jun-22 13:30N 40°42' W 074°00'1 2.0
2017-Jun-22 13:00N 40°43' W 074°01'1 2.2
2017-Jun-22 12:30N 40°44' W 074°01'0 0.0
2017-Jun-21 22:33N 40°44' W 074°01'0 0.0
2017-Jun-21 22:30N 40°44' W 074°01'2 3.3
2017-Jun-21 22:00N 40°42' W 074°00'1 2.9
2017-Jun-21 21:30N 40°42' W 074°02'1 2.9
2017-Jun-21 21:00N 40°42' W 074°00'0 0.0
2017-Jun-21 20:30N 40°42' W 074°00'2 3.9
2017-Jun-21 20:00N 40°41' W 074°02'2 3.9
2017-Jun-21 19:30N 40°42' W 074°00'0 0.0
2017-Jun-21 19:00N 40°42' W 074°00'2 3.8
2017-Jun-21 18:30N 40°41' W 074°02'2 3.8
2017-Jun-21 18:00N 40°42' W 074°00'1 1.7
2017-Jun-21 17:30N 40°42' W 074°01'1 1.7
2017-Jun-21 17:00N 40°42' W 074°00'0 0.1
2017-Jun-21 16:30N 40°42' W 074°00'2 3.8
2017-Jun-21 16:00N 40°41' W 074°02'2 3.8
2017-Jun-21 15:30N 40°42' W 074°00'0 0.0
2017-Jun-21 15:00N 40°42' W 074°00'2 3.8
2017-Jun-21 14:30N 40°41' W 074°02'1 1.3
2017-Jun-21 13:30N 40°43' W 074°02'0 0.6
2017-Jun-21 13:00N 40°43' W 074°03'2 3.5
2017-Jun-21 12:30N 40°44' W 074°01'0 0.0
2017-Jun-21 03:00N 40°44' W 074°01'1 2.0
2017-Jun-21 02:30N 40°43' W 074°01'2 3.8
2017-Jun-21 02:01N 40°41' W 074°02'2 3.6
2017-Jun-21 01:31N 40°42' W 074°00'2 4.0
2017-Jun-21 01:00N 40°44' W 074°01'1 2.7
2017-Jun-21 00:30N 40°45' W 074°01'1 2.9
2017-Jun-21 00:01N 40°44' W 074°01'0 0.0
2017-Jun-20 23:31N 40°44' W 074°01'0 0.0
2017-Jun-20 21:39N 40°44' W 074°01'0 0.0
2017-Jun-20 21:30N 40°44' W 074°01'0 0.2
2017-Jun-20 21:00N 40°44' W 074°01'0 0.2
2017-Jun-20 20:30N 40°44' W 074°01'0 0.0
2017-Jun-20 20:00N 40°44' W 074°01'2 3.2
2017-Jun-20 19:30N 40°42' W 074°00'2 3.2
2017-Jun-20 19:00N 40°41' W 074°02'2 3.2
2017-Jun-20 18:30N 40°42' W 074°00'0 0.0
2017-Jun-20 18:00N 40°42' W 074°00'2 3.7
2017-Jun-20 17:30N 40°41' W 074°02'2 3.7
2017-Jun-20 17:00N 40°42' W 074°00'0 0.0
2017-Jun-20 16:30N 40°42' W 074°00'2 3.7
2017-Jun-20 16:00N 40°41' W 074°02'2 3.6
2017-Jun-20 15:30N 40°42' W 074°00'0 0.0
2017-Jun-20 15:00N 40°42' W 074°00'2 4.0
2017-Jun-20 14:30N 40°41' W 074°02'2 2.0
2017-Jun-20 13:30N 40°42' W 074°00'0 0.0
2017-Jun-20 13:00N 40°42' W 074°00'0 0.4
2017-Jun-20 12:30N 40°42' W 074°00'2 0.1
2017-Jun-19 22:52N 40°44' W 074°01'0 1.3
2017-Jun-19 22:30N 40°43' W 074°01'1 2.7
2017-Jun-19 22:00N 40°42' W 074°00'1 3.0
2017-Jun-19 21:30N 40°41' W 074°02'1 3.0
2017-Jun-19 21:00N 40°42' W 074°00'0 0.0
2017-Jun-19 20:30N 40°42' W 074°00'2 4.2
2017-Jun-19 20:00N 40°41' W 074°03'2 4.3
2017-Jun-19 19:30N 40°42' W 074°00'0 0.0
2017-Jun-19 19:00N 40°42' W 074°00'2 4.1
2017-Jun-19 18:30N 40°41' W 074°03'2 4.0
2017-Jun-19 18:00N 40°42' W 074°00'0 0.0
2017-Jun-19 17:30N 40°42' W 074°00'2 4.0
2017-Jun-19 17:00N 40°41' W 074°02'2 4.0
2017-Jun-19 16:30N 40°42' W 074°00'0 0.0
2017-Jun-19 16:00N 40°42' W 074°00'2 3.7
2017-Jun-19 15:30N 40°41' W 074°02'2 3.7
2017-Jun-19 15:00N 40°42' W 074°00'0 0.0
2017-Jun-19 14:30N 40°42' W 074°00'0 0.0
2017-Jun-19 13:30N 40°42' W 074°00'0 0.0
2017-Jun-19 13:00N 40°42' W 074°00'2 3.3
2017-Jun-19 12:30N 40°44' W 074°01'0 0.0
2017-Jun-19 12:00N 40°44' W 074°01'0 0.0
2017-Jun-19 11:30N 40°44' W 074°01'0 0.0
2017-Jun-18 22:50N 40°44' W 074°01'1 1.7
2017-Jun-18 22:30N 40°43' W 074°01'1 2.5
2017-Jun-18 22:00N 40°42' W 074°00'2 4.0
2017-Jun-18 21:30N 40°41' W 074°03'2 4.0
2017-Jun-18 21:00N 40°42' W 074°00'0 0.0
2017-Jun-18 20:30N 40°42' W 074°00'2 3.9
2017-Jun-18 20:00N 40°41' W 074°02'2 3.9
2017-Jun-18 19:30N 40°42' W 074°00'0 0.0
2017-Jun-18 19:00N 40°42' W 074°00'2 4.2
2017-Jun-18 18:30N 40°41' W 074°03'2 4.2
2017-Jun-18 18:00N 40°42' W 074°00'0 0.0
2017-Jun-18 17:30N 40°42' W 074°00'2 4.0
2017-Jun-18 17:00N 40°41' W 074°02'2 4.0
2017-Jun-18 16:30N 40°42' W 074°00'0 0.0
2017-Jun-18 16:00N 40°42' W 074°00'2 3.9
2017-Jun-18 15:30N 40°41' W 074°02'2 3.9
2017-Jun-18 15:00N 40°42' W 074°00'2 2.0
2017-Jun-18 14:00N 40°41' W 074°02'2 4.0
2017-Jun-18 13:30N 40°42' W 074°00'1 1.1
2017-Jun-18 13:00N 40°42' W 074°01'2 3.8
2017-Jun-18 12:30N 40°44' W 074°01'0 0.0
2017-Jun-18 04:21N 40°44' W 074°01'0 0.0
2017-Jun-18 04:00N 40°44' W 074°01'1 2.5
2017-Jun-18 03:30N 40°43' W 074°01'  
Track history (hours):
 
Tides and Currents Weather Stations Pressure Air Temp Water Temp Dewpoint Dewpoint Depression Visibility Wind Speed Wind Dir Waves Ship Positions

John James Audubon

Owner: Statue Cruises, Jersey City, NJ. More information available from US FCC via Universal Licensing System and Coast Guard Vessel Documentation Center.

Last reported at 2017-Jun-28 03:08 UTC. Time now 2017-Jun-28 03:42 UTC.
Position N 40°44' W 074°01'.

Length 37 m.

Type: Ship. MMSI: 367400770.

Date/timePositionNaut miles runAvg speedWind from/ knotsBaromVisibWave heightAir tempDewpointWater temp
2017-Jun-28 03:08N 40°44' W 074°01'0 0.0
2017-Jun-28 03:01N 40°44' W 074°01'3 5.0
2017-Jun-28 02:30N 40°42' W 074°02'2 4.7
2017-Jun-28 02:01N 40°43' W 073°59'1 1.7
2017-Jun-28 01:31N 40°42' W 074°00'3 6.7
2017-Jun-28 01:01N 40°45' W 074°01'2 3.1
2017-Jun-28 00:30N 40°44' W 074°01'0 0.0
2017-Jun-28 00:00N 40°44' W 074°01'0 0.1
2017-Jun-27 23:30N 40°44' W 074°01'0 0.0
2017-Jun-27 23:00N 40°44' W 074°01'0 0.0
2017-Jun-27 22:30N 40°44' W 074°01'0 0.0
2017-Jun-27 22:01N 40°44' W 074°01'0 0.0
2017-Jun-27 21:30N 40°44' W 074°01'0 0.0
2017-Jun-27 21:00N 40°44' W 074°01'0 0.0
2017-Jun-27 20:30N 40°44' W 074°01'0 0.6
2017-Jun-27 20:00N 40°44' W 074°01'1 3.0
2017-Jun-27 19:30N 40°42' W 074°00'2 3.7
2017-Jun-27 19:01N 40°41' W 074°02'2 3.6
2017-Jun-27 18:30N 40°42' W 074°00'0 0.0
2017-Jun-27 18:01N 40°42' W 074°00'2 4.1
2017-Jun-27 17:31N 40°41' W 074°03'2 4.1
2017-Jun-27 17:01N 40°42' W 074°00'0 0.0
2017-Jun-27 16:31N 40°42' W 074°00'2 4.1
2017-Jun-27 16:01N 40°41' W 074°03'2 4.1
2017-Jun-27 15:31N 40°42' W 074°00'0 0.0
2017-Jun-27 15:01N 40°42' W 074°00'0 0.0
2017-Jun-27 14:01N 40°42' W 074°00'0 0.0
2017-Jun-27 13:31N 40°42' W 074°00'0 0.0
2017-Jun-27 13:00N 40°42' W 074°00'0 0.4
2017-Jun-27 12:31N 40°42' W 074°00'2 3.6
2017-Jun-27 12:00N 40°44' W 074°01'0 0.0
2017-Jun-26 23:49N 40°44' W 074°01'0 0.0
2017-Jun-26 23:31N 40°44' W 074°01'0 0.0
2017-Jun-26 23:00N 40°44' W 074°01'0 0.5
2017-Jun-26 22:30N 40°44' W 074°01'2 3.2
2017-Jun-26 22:00N 40°42' W 074°00'2 3.3
2017-Jun-26 21:30N 40°41' W 074°02'2 3.4
2017-Jun-26 21:00N 40°42' W 074°00'0 0.0
2017-Jun-26 20:30N 40°42' W 074°00'2 3.8
2017-Jun-26 20:00N 40°41' W 074°02'2 3.8
2017-Jun-26 19:30N 40°42' W 074°00'0 0.0
2017-Jun-26 19:00N 40°42' W 074°00'2 4.2
2017-Jun-26 18:30N 40°41' W 074°03'2 4.2
2017-Jun-26 18:00N 40°42' W 074°00'0 0.0
2017-Jun-26 17:30N 40°42' W 074°00'2 4.0
2017-Jun-26 17:00N 40°41' W 074°02'2 4.0
2017-Jun-26 16:30N 40°42' W 074°00'0 0.0
2017-Jun-26 16:00N 40°42' W 074°00'2 4.1
2017-Jun-26 15:30N 40°41' W 074°02'2 4.1
2017-Jun-26 15:00N 40°42' W 074°00'0 0.0
2017-Jun-26 14:30N 40°42' W 074°00'0 0.0
2017-Jun-26 13:30N 40°42' W 074°00'0 0.0
2017-Jun-26 13:00N 40°42' W 074°00'2 0.2
2017-Jun-26 05:50N 40°44' W 074°01'0 0.0
2017-Jun-26 05:30N 40°44' W 074°01'0 0.0
2017-Jun-26 05:00N 40°44' W 074°01'0 0.0
2017-Jun-26 04:30N 40°44' W 074°01'0 0.4
2017-Jun-26 04:00N 40°44' W 074°01'0 0.3
2017-Jun-26 03:30N 40°44' W 074°01'0 0.5
2017-Jun-26 03:00N 40°44' W 074°01'0 0.0
2017-Jun-26 02:30N 40°44' W 074°01'1 1.1
2017-Jun-26 02:00N 40°44' W 074°01'2 4.2
2017-Jun-26 01:30N 40°42' W 074°02'2 3.5
2017-Jun-26 01:00N 40°42' W 074°00'2 3.9
2017-Jun-26 00:30N 40°44' W 074°01'1 1.2
2017-Jun-26 00:01N 40°45' W 074°01'1 1.4
2017-Jun-25 23:30N 40°44' W 074°01'0 0.0
2017-Jun-25 23:00N 40°44' W 074°01'0 0.0
2017-Jun-25 22:30N 40°44' W 074°01'0 0.0
2017-Jun-25 22:00N 40°44' W 074°01'0 0.0
2017-Jun-25 21:30N 40°44' W 074°01'0 0.0
2017-Jun-25 21:00N 40°44' W 074°01'0 0.0
2017-Jun-25 20:30N 40°44' W 074°01'1 2.6
2017-Jun-25 20:00N 40°43' W 074°01'1 1.8
2017-Jun-25 19:30N 40°42' W 074°00'2 4.0
2017-Jun-25 19:01N 40°41' W 074°02'2 4.0
2017-Jun-25 18:30N 40°42' W 074°00'0 0.4
2017-Jun-25 18:00N 40°42' W 073°60'2 4.2
2017-Jun-25 17:30N 40°41' W 074°02'2 3.8
2017-Jun-25 17:00N 40°42' W 074°00'0 0.0
2017-Jun-25 16:30N 40°42' W 074°00'2 3.9
2017-Jun-25 16:00N 40°41' W 074°02'2 3.8
2017-Jun-25 15:30N 40°42' W 074°00'0 0.0
2017-Jun-25 15:00N 40°42' W 074°00'2 4.0
2017-Jun-25 14:30N 40°41' W 074°02'1 1.4
2017-Jun-25 13:30N 40°42' W 074°01'2 0.2
2017-Jun-25 03:49N 40°44' W 074°01'0 1.2
2017-Jun-25 03:30N 40°44' W 074°01'2 4.9
2017-Jun-25 03:00N 40°41' W 074°02'2 4.9
2017-Jun-25 02:30N 40°42' W 073°59'1 2.9
2017-Jun-25 02:00N 40°43' W 074°01'1 1.8
2017-Jun-25 01:30N 40°44' W 074°01'0 0.0
2017-Jun-25 01:00N 40°44' W 074°01'0 0.0
2017-Jun-25 00:30N 40°44' W 074°01'0 0.0
2017-Jun-24 22:54N 40°44' W 074°01'1 1.9
2017-Jun-24 22:30N 40°43' W 074°01'1 2.3
2017-Jun-24 22:00N 40°42' W 074°00'1 2.0
2017-Jun-24 21:30N 40°42' W 074°01'1 1.9
2017-Jun-24 21:00N 40°42' W 074°00'0 0.0
2017-Jun-24 20:30N 40°42' W 074°00'2 3.7
2017-Jun-24 20:00N 40°41' W 074°02'2 3.7
2017-Jun-24 19:30N 40°42' W 074°00'0 0.0
2017-Jun-24 19:00N 40°42' W 074°00'2 4.1
2017-Jun-24 18:30N 40°41' W 074°02'2 4.1
2017-Jun-24 18:00N 40°42' W 074°00'0 0.0
2017-Jun-24 17:30N 40°42' W 074°00'1 2.7
2017-Jun-24 17:00N 40°41' W 074°02'1 2.7
2017-Jun-24 16:30N 40°42' W 074°00'0 0.0
2017-Jun-24 16:00N 40°42' W 074°00'2 4.2
2017-Jun-24 15:31N 40°41' W 074°02'2 4.1
2017-Jun-24 15:00N 40°42' W 074°00'2 1.8
2017-Jun-24 14:00N 40°41' W 074°02'2 3.5
2017-Jun-24 13:30N 40°42' W 074°00'1 2.6
2017-Jun-24 13:00N 40°43' W 074°01'1 0.1
2017-Jun-24 02:11N 40°44' W 074°01'0 0.0
2017-Jun-24 02:00N 40°44' W 074°01'3 5.4
2017-Jun-24 01:30N 40°41' W 074°02'1 2.3
2017-Jun-24 01:01N 40°42' W 074°01'3 6.1
2017-Jun-24 00:30N 40°45' W 074°01'0 0.5
2017-Jun-24 00:00N 40°45' W 074°01'2 3.2
2017-Jun-23 23:30N 40°44' W 074°01'0 0.0
2017-Jun-23 23:00N 40°44' W 074°01'0 0.0
2017-Jun-23 22:30N 40°44' W 074°01'0 0.0
2017-Jun-23 22:00N 40°44' W 074°01'0 0.0
2017-Jun-23 21:31N 40°44' W 074°01'0 0.0
2017-Jun-23 21:01N 40°44' W 074°01'0 0.0
2017-Jun-23 20:30N 40°44' W 074°01'1 1.6
2017-Jun-23 20:01N 40°43' W 074°01'1 2.3
2017-Jun-23 19:30N 40°42' W 074°00'2 4.0
2017-Jun-23 19:00N 40°41' W 074°02'2 4.0
2017-Jun-23 18:30N 40°42' W 074°00'0 0.0
2017-Jun-23 18:01N 40°42' W 074°00'2 4.0
2017-Jun-23 17:30N 40°41' W 074°03'2 4.1
2017-Jun-23 17:00N 40°42' W 074°00'0 0.0
2017-Jun-23 16:31N 40°42' W 074°00'2 4.0
2017-Jun-23 16:01N 40°41' W 074°02'2 4.0
2017-Jun-23 15:30N 40°42' W 074°00'0 0.1
2017-Jun-23 15:01N 40°42' W 074°00'0 0.0
2017-Jun-23 14:01N 40°42' W 074°00'0 0.0
2017-Jun-23 13:30N 40°42' W 074°00'0 0.0
2017-Jun-23 13:01N 40°42' W 074°00'2 0.1
2017-Jun-22 22:28N 40°44' W 074°01'2 3.7
2017-Jun-22 22:00N 40°42' W 074°00'2 3.8
2017-Jun-22 21:30N 40°41' W 074°02'2 3.8
2017-Jun-22 21:00N 40°42' W 074°00'0 0.0
2017-Jun-22 20:30N 40°42' W 074°00'2 3.4
2017-Jun-22 20:00N 40°41' W 074°02'2 3.3
2017-Jun-22 19:30N 40°42' W 074°00'0 0.0
2017-Jun-22 19:00N 40°42' W 074°00'2 3.3
2017-Jun-22 18:30N 40°41' W 074°02'2 3.3
2017-Jun-22 18:00N 40°42' W 074°00'0 0.0
2017-Jun-22 17:30N 40°42' W 074°00'2 3.1
2017-Jun-22 17:00N 40°41' W 074°02'2 3.0
2017-Jun-22 16:30N 40°42' W 074°00'0 0.0
2017-Jun-22 16:00N 40°42' W 074°00'2 3.4
2017-Jun-22 15:30N 40°41' W 074°02'2 3.4
2017-Jun-22 15:00N 40°42' W 074°00'0 0.0
2017-Jun-22 14:30N 40°42' W 074°00'0 0.0
2017-Jun-22 13:30N 40°42' W 074°00'1 2.0
2017-Jun-22 13:00N 40°43' W 074°01'1 2.2
2017-Jun-22 12:30N 40°44' W 074°01'0 0.0
2017-Jun-21 22:33N 40°44' W 074°01'0 0.0
2017-Jun-21 22:30N 40°44' W 074°01'2 3.3
2017-Jun-21 22:00N 40°42' W 074°00'1 2.9
2017-Jun-21 21:30N 40°42' W 074°02'1 2.9
2017-Jun-21 21:00N 40°42' W 074°00'0 0.0
2017-Jun-21 20:30N 40°42' W 074°00'2 3.9
2017-Jun-21 20:00N 40°41' W 074°02'2 3.9
2017-Jun-21 19:30N 40°42' W 074°00'0 0.0
2017-Jun-21 19:00N 40°42' W 074°00'2 3.8
2017-Jun-21 18:30N 40°41' W 074°02'2 3.8
2017-Jun-21 18:00N 40°42' W 074°00'1 1.7
2017-Jun-21 17:30N 40°42' W 074°01'1 1.7
2017-Jun-21 17:00N 40°42' W 074°00'0 0.1
2017-Jun-21 16:30N 40°42' W 074°00'2 3.8
2017-Jun-21 16:00N 40°41' W 074°02'2 3.8
2017-Jun-21 15:30N 40°42' W 074°00'0 0.0
2017-Jun-21 15:00N 40°42' W 074°00'2 3.8
2017-Jun-21 14:30N 40°41' W 074°02'1 1.3
2017-Jun-21 13:30N 40°43' W 074°02'0 0.6
2017-Jun-21 13:00N 40°43' W 074°03'2 3.5
2017-Jun-21 12:30N 40°44' W 074°01'0 0.0
2017-Jun-21 03:00N 40°44' W 074°01'1 2.0
2017-Jun-21 02:30N 40°43' W 074°01'2 3.8
2017-Jun-21 02:01N 40°41' W 074°02'2 3.6
2017-Jun-21 01:31N 40°42' W 074°00'2 4.0
2017-Jun-21 01:00N 40°44' W 074°01'1 2.7
2017-Jun-21 00:30N 40°45' W 074°01'1 2.9
2017-Jun-21 00:01N 40°44' W 074°01'0 0.0
2017-Jun-20 23:31N 40°44' W 074°01'0 0.0
2017-Jun-20 21:39N 40°44' W 074°01'0 0.0
2017-Jun-20 21:30N 40°44' W 074°01'0 0.2
2017-Jun-20 21:00N 40°44' W 074°01'0 0.2
2017-Jun-20 20:30N 40°44' W 074°01'0 0.0
2017-Jun-20 20:00N 40°44' W 074°01'2 3.2
2017-Jun-20 19:30N 40°42' W 074°00'2 3.2
2017-Jun-20 19:00N 40°41' W 074°02'2 3.2
2017-Jun-20 18:30N 40°42' W 074°00'0 0.0
2017-Jun-20 18:00N 40°42' W 074°00'2 3.7
2017-Jun-20 17:30N 40°41' W 074°02'2 3.7
2017-Jun-20 17:00N 40°42' W 074°00'0 0.0
2017-Jun-20 16:30N 40°42' W 074°00'2 3.7
2017-Jun-20 16:00N 40°41' W 074°02'2 3.6
2017-Jun-20 15:30N 40°42' W 074°00'0 0.0
2017-Jun-20 15:00N 40°42' W 074°00'2 4.0
2017-Jun-20 14:30N 40°41' W 074°02'2 2.0
2017-Jun-20 13:30N 40°42' W 074°00'0 0.0
2017-Jun-20 13:00N 40°42' W 074°00'0 0.4
2017-Jun-20 12:30N 40°42' W 074°00'2 0.1
2017-Jun-19 22:52N 40°44' W 074°01'0 1.3
2017-Jun-19 22:30N 40°43' W 074°01'1 2.7
2017-Jun-19 22:00N 40°42' W 074°00'1 3.0
2017-Jun-19 21:30N 40°41' W 074°02'1 3.0
2017-Jun-19 21:00N 40°42' W 074°00'0 0.0
2017-Jun-19 20:30N 40°42' W 074°00'2 4.2
2017-Jun-19 20:00N 40°41' W 074°03'2 4.3
2017-Jun-19 19:30N 40°42' W 074°00'0 0.0
2017-Jun-19 19:00N 40°42' W 074°00'2 4.1
2017-Jun-19 18:30N 40°41' W 074°03'2 4.0
2017-Jun-19 18:00N 40°42' W 074°00'0 0.0
2017-Jun-19 17:30N 40°42' W 074°00'2 4.0
2017-Jun-19 17:00N 40°41' W 074°02'2 4.0
2017-Jun-19 16:30N 40°42' W 074°00'0 0.0
2017-Jun-19 16:00N 40°42' W 074°00'2 3.7
2017-Jun-19 15:30N 40°41' W 074°02'2 3.7
2017-Jun-19 15:00N 40°42' W 074°00'0 0.0
2017-Jun-19 14:30N 40°42' W 074°00'0 0.0
2017-Jun-19 13:30N 40°42' W 074°00'0 0.0
2017-Jun-19 13:00N 40°42' W 074°00'2 3.3
2017-Jun-19 12:30N 40°44' W 074°01'0 0.0
2017-Jun-19 12:00N 40°44' W 074°01'0 0.0
2017-Jun-19 11:30N 40°44' W 074°01'0 0.0
2017-Jun-18 22:50N 40°44' W 074°01'1 1.7
2017-Jun-18 22:30N 40°43' W 074°01'1 2.5
2017-Jun-18 22:00N 40°42' W 074°00'2 4.0
2017-Jun-18 21:30N 40°41' W 074°03'2 4.0
2017-Jun-18 21:00N 40°42' W 074°00'0 0.0
2017-Jun-18 20:30N 40°42' W 074°00'2 3.9
2017-Jun-18 20:00N 40°41' W 074°02'2 3.9
2017-Jun-18 19:30N 40°42' W 074°00'0 0.0
2017-Jun-18 19:00N 40°42' W 074°00'2 4.2
2017-Jun-18 18:30N 40°41' W 074°03'2 4.2
2017-Jun-18 18:00N 40°42' W 074°00'0 0.0
2017-Jun-18 17:30N 40°42' W 074°00'2 4.0
2017-Jun-18 17:00N 40°41' W 074°02'2 4.0
2017-Jun-18 16:30N 40°42' W 074°00'0 0.0
2017-Jun-18 16:00N 40°42' W 074°00'2 3.9
2017-Jun-18 15:30N 40°41' W 074°02'2 3.9
2017-Jun-18 15:00N 40°42' W 074°00'2 2.0
2017-Jun-18 14:00N 40°41' W 074°02'2 4.0
2017-Jun-18 13:30N 40°42' W 074°00'1 1.1
2017-Jun-18 13:00N 40°42' W 074°01'2 3.8
2017-Jun-18 12:30N 40°44' W 074°01'0 0.0
2017-Jun-18 04:21N 40°44' W 074°01'0 0.0
2017-Jun-18 04:00N 40°44' W 074°01'1 2.5
2017-Jun-18 03:30N 40°43' W 074°01'  

Dump ship's entire track history